Terminal Aerodrome Forecast
Issued by NWS

Home | Current Version | Previous Version | Text Only | Print | Product List | Glossary On
Versions: 1 2 3 4 5 6 7 8 9 10 11 12 13 14 15 16 17 18 19
000
FTUS45 KTFX 181132
TAFHLN
TAF
KHLN 181132Z 1812/1912 VRB04KT P6SM SCT120 BKN200 WS020/23030KT
      PROB30 1821/1824 4SM -RA BKN060 BKN070
     FM190200 26005KT 2SM -SN BR BKN030 OVC050
     FM190800 VRB04KT P6SM SCT035 OVC045 PROB30 1908/1911 1SM -SN
      BKN035 BKN040=

USA.gov is the U.S. government's official web portal to all federal, state and local government web resources and services.